createdAt,value
2022-11-28T00:02:07.658Z,95.01
2022-11-28T00:04:34.315Z,94.82
2022-11-28T00:07:00.974Z,94.82
2022-11-28T00:09:27.657Z,95.08
2022-11-28T00:11:54.114Z,95.27
2022-11-28T00:14:20.624Z,95.17
2022-11-28T00:16:47.952Z,95.11
2022-11-28T00:19:14.822Z,95.13
2022-11-28T00:21:41.856Z,95.48
2022-11-28T00:24:08.649Z,95.34
2022-11-28T00:26:39.462Z,95.42
2022-11-28T00:29:07.733Z,95.37
2022-11-28T00:31:42.141Z,95.66
2022-11-28T00:34:11.443Z,95.54
2022-11-28T00:36:37.924Z,95.46
2022-11-28T00:39:05.228Z,95.68
2022-11-28T00:41:34.939Z,95.73
2022-11-28T00:44:01.570Z,95.59
2022-11-28T00:46:28.609Z,95.35
2022-11-28T00:48:55.150Z,95.48
2022-11-28T00:51:24.674Z,95.17
2022-11-28T00:53:53.243Z,95.52
2022-11-28T00:56:22.691Z,95.29
2022-11-28T00:58:49.782Z,95.58
2022-11-28T01:01:28.166Z,95.72
2022-11-28T01:03:57.179Z,95.82
2022-11-28T01:06:27.739Z,95.65
2022-11-28T01:08:55.341Z,95.67
2022-11-28T01:11:22.371Z,95.72
2022-11-28T01:13:49.751Z,95.82
2022-11-28T01:16:16.796Z,96.16
2022-11-28T01:18:43.409Z,96.07
2022-11-28T01:21:10.709Z,96.08
2022-11-28T01:23:37.788Z,96.19
2022-11-28T01:26:06.358Z,96.16
2022-11-28T01:28:34.054Z,96.15
2022-11-28T01:31:06.120Z,96.37
2022-11-28T01:33:33.280Z,96.29
2022-11-28T01:36:00.131Z,96.42
2022-11-28T01:38:27.789Z,96.51
2022-11-28T01:40:55.484Z,96.48
2022-11-28T01:43:23.655Z,96.66
2022-11-28T01:45:50.541Z,96.76
2022-11-28T01:48:25.561Z,96.74
2022-11-28T01:50:58.490Z,97.01
2022-11-28T01:53:29.057Z,96.75
2022-11-28T01:56:02.010Z,96.87
2022-11-28T01:58:30.806Z,96.93
2022-11-28T02:00:58.181Z,97.08
2022-11-28T02:03:30.848Z,97.08
2022-11-28T02:05:57.430Z,97.56
2022-11-28T02:08:25.490Z,97.44
2022-11-28T02:11:11.539Z,97.61
2022-11-28T02:14:05.737Z,97.26
2022-11-28T02:16:54.186Z,97.50
2022-11-28T02:19:53.006Z,97.78
2022-11-28T02:22:33.258Z,97.79
2022-11-28T02:25:19.153Z,97.89
2022-11-28T02:28:03.856Z,97.82
2022-11-28T02:30:47.791Z,97.79
2022-11-28T02:33:25.092Z,97.93
2022-11-28T02:35:55.746Z,98.03
2022-11-28T02:38:46.496Z,98.15
2022-11-28T02:41:23.064Z,97.91
2022-11-28T02:44:03.761Z,97.95
2022-11-28T02:46:43.707Z,98.14
2022-11-28T02:49:34.161Z,98.24
2022-11-28T02:52:07.616Z,98.47
2022-11-28T02:54:34.864Z,98.24
2022-11-28T02:57:03.024Z,98.33
2022-11-28T02:59:32.126Z,98.38
2022-11-28T03:02:00.838Z,98.68
2022-11-28T03:04:40.470Z,98.29
2022-11-28T03:07:30.933Z,98.71
2022-11-28T03:10:19.320Z,98.36
2022-11-28T03:12:51.598Z,98.36
2022-11-28T03:15:23.281Z,98.46
2022-11-28T03:18:03.144Z,98.30
2022-11-28T03:20:41.765Z,98.37
2022-11-28T03:23:19.708Z,98.24
2022-11-28T03:26:00.682Z,98.21
2022-11-28T03:28:44.779Z,98.32
2022-11-28T03:31:15.509Z,98.31
2022-11-28T03:33:47.247Z,98.32
2022-11-28T03:36:19.939Z,98.63
2022-11-28T03:38:51.290Z,98.50
2022-11-28T03:41:25.091Z,98.44
2022-11-28T03:43:54.954Z,98.51
2022-11-28T03:46:25.952Z,98.01
2022-11-28T03:48:56.879Z,98.55
2022-11-28T03:51:33.015Z,98.45
2022-11-28T03:54:12.164Z,98.29
2022-11-28T03:56:47.789Z,98.23
2022-11-28T03:59:31.151Z,98.02
2022-11-28T04:02:12.254Z,97.81
2022-11-28T04:04:50.849Z,98.05
2022-11-28T04:07:27.047Z,97.94
2022-11-28T04:10:12.257Z,98.02
2022-11-28T04:12:39.736Z,98.15
2022-11-28T04:15:17.450Z,98.26
2022-11-28T04:17:52.783Z,97.90
2022-11-28T04:20:26.211Z,98.12
2022-11-28T04:22:58.896Z,98.20
2022-11-28T04:25:28.635Z,97.84
2022-11-28T04:28:00.416Z,97.88
2022-11-28T04:30:27.370Z,97.88
2022-11-28T04:32:59.722Z,98.14
2022-11-28T04:35:33.878Z,97.95
2022-11-28T04:38:03.540Z,97.92
2022-11-28T04:40:33.251Z,98.02
2022-11-28T04:43:04.240Z,98.20
2022-11-28T04:45:34.889Z,97.67
2022-11-28T04:48:01.788Z,97.86
2022-11-28T04:50:40.194Z,97.78
2022-11-28T04:53:16.265Z,97.88
2022-11-28T04:55:50.347Z,97.89
2022-11-28T04:58:22.869Z,97.95
2022-11-28T05:00:52.845Z,97.74
2022-11-28T05:03:20.304Z,97.87
2022-11-28T05:05:50.163Z,97.77
2022-11-28T05:08:18.313Z,97.92
2022-11-28T05:10:45.651Z,97.95
2022-11-28T05:13:12.339Z,97.88
2022-11-28T05:15:39.276Z,97.78
2022-11-28T05:18:06.089Z,98.13
2022-11-28T05:20:32.800Z,97.75
2022-11-28T05:22:59.318Z,97.58
2022-11-28T05:25:26.209Z,97.83
2022-11-28T05:27:53.068Z,97.88
2022-11-28T05:30:20.812Z,97.71
2022-11-28T05:32:47.364Z,97.63
2022-11-28T05:35:14.193Z,97.67
2022-11-28T05:37:40.833Z,97.54
2022-11-28T05:40:07.980Z,97.71
2022-11-28T05:42:35.624Z,97.54
2022-11-28T05:45:03.675Z,97.65
2022-11-28T05:47:31.622Z,97.77
2022-11-28T05:49:58.462Z,97.84
2022-11-28T05:52:25.197Z,97.73
2022-11-28T05:54:51.794Z,97.79
2022-11-28T05:57:18.289Z,97.66
2022-11-28T05:59:45.185Z,97.66
2022-11-28T06:02:11.949Z,97.50
2022-11-28T06:04:41.759Z,97.75
2022-11-28T06:07:08.720Z,97.65
2022-11-28T06:09:36.258Z,97.51
2022-11-28T06:12:04.105Z,97.65
2022-11-28T06:14:30.594Z,97.61
2022-11-28T06:16:57.133Z,97.58
2022-11-28T06:19:23.705Z,97.72
2022-11-28T06:21:50.875Z,97.68
2022-11-28T06:24:17.422Z,97.74
2022-11-28T06:26:44.613Z,97.39
2022-11-28T06:29:11.100Z,97.31
2022-11-28T06:31:37.664Z,97.68
2022-11-28T06:34:04.262Z,97.26
2022-11-28T06:36:30.997Z,97.57
2022-11-28T06:38:57.729Z,97.60
2022-11-28T06:41:24.431Z,97.61
2022-11-28T06:43:50.983Z,97.69
2022-11-28T06:46:20.195Z,97.73
2022-11-28T06:48:48.072Z,97.60
2022-11-28T06:51:14.613Z,97.63
2022-11-28T06:53:41.541Z,97.76
2022-11-28T06:56:11.427Z,97.66
2022-11-28T06:58:38.165Z,97.73
2022-11-28T07:01:09.150Z,97.73
2022-11-28T07:03:36.216Z,98.11
2022-11-28T07:06:04.088Z,98.06
2022-11-28T07:08:31.893Z,97.74
2022-11-28T07:11:06.430Z,97.59
2022-11-28T07:13:32.950Z,97.84
2022-11-28T07:15:59.464Z,97.89
2022-11-28T07:18:25.949Z,97.82
2022-11-28T07:20:52.417Z,97.70
2022-11-28T07:23:18.984Z,97.67
2022-11-28T07:25:45.474Z,97.61
2022-11-28T07:28:11.998Z,97.75
2022-11-28T07:30:38.497Z,97.87
2022-11-28T07:33:05.005Z,97.62
2022-11-28T07:35:34.397Z,97.49
2022-11-28T07:38:00.925Z,97.82
2022-11-28T07:40:28.718Z,97.94
2022-11-28T07:42:55.215Z,97.95
2022-11-28T07:45:22.900Z,97.64
2022-11-28T07:47:49.608Z,98.03
2022-11-28T07:50:16.222Z,98.08
2022-11-28T07:52:42.736Z,97.97
2022-11-28T07:55:09.311Z,97.84
2022-11-28T07:57:35.817Z,97.81
2022-11-28T08:00:02.515Z,97.73
2022-11-28T08:02:32.369Z,97.86
2022-11-28T08:05:00.021Z,98.11
2022-11-28T08:07:26.625Z,98.00
2022-11-28T08:09:53.177Z,97.97
2022-11-28T08:12:19.658Z,98.00
2022-11-28T08:14:46.417Z,97.96
2022-11-28T08:17:12.874Z,98.22
2022-11-28T08:19:39.351Z,97.96
2022-11-28T08:22:05.824Z,97.70
2022-11-28T08:24:33.206Z,98.06
2022-11-28T08:27:00.165Z,97.99
2022-11-28T08:29:26.680Z,98.09
2022-11-28T08:31:53.325Z,98.08
2022-11-28T08:34:19.809Z,97.70
2022-11-28T08:36:47.404Z,97.88
2022-11-28T08:39:24.096Z,97.71
2022-11-28T08:41:51.923Z,97.78
2022-11-28T08:44:18.667Z,97.86
2022-11-28T08:46:45.237Z,97.96
2022-11-28T08:49:11.858Z,98.11
2022-11-28T08:51:38.384Z,98.16
2022-11-28T08:54:05.101Z,98.14
2022-11-28T08:56:31.849Z,98.08
2022-11-28T08:58:58.380Z,97.89
2022-11-28T09:01:27.566Z,97.94
2022-11-28T09:03:55.565Z,97.96
2022-11-28T09:06:23.062Z,97.96
2022-11-28T09:08:50.466Z,98.14
2022-11-28T09:11:19.117Z,98.18
2022-11-28T09:13:47.078Z,98.38
2022-11-28T09:16:14.622Z,98.20
2022-11-28T09:18:41.284Z,97.95
2022-11-28T09:21:10.821Z,98.06
2022-11-28T09:23:38.767Z,97.83
2022-11-28T09:26:15.069Z,98.12
2022-11-28T09:28:41.613Z,98.09
2022-11-28T09:31:09.098Z,98.14
2022-11-28T09:33:36.383Z,98.05
2022-11-28T09:36:06.746Z,98.18
2022-11-28T09:38:33.550Z,98.16
2022-11-28T09:41:02.082Z,98.14
2022-11-28T09:43:37.413Z,98.48
2022-11-28T09:46:12.061Z,98.01
2022-11-28T09:48:45.180Z,98.52
2022-11-28T09:51:22.423Z,98.14
2022-11-28T09:54:02.456Z,98.48
2022-11-28T09:56:28.968Z,98.09
2022-11-28T09:58:58.916Z,98.37
2022-11-28T10:01:34.568Z,98.57
2022-11-28T10:04:09.790Z,98.08
2022-11-28T10:06:44.393Z,98.07
2022-11-28T10:09:34.617Z,98.26
2022-11-28T10:12:15.286Z,98.31
2022-11-28T10:14:49.916Z,98.50
2022-11-28T10:17:23.836Z,98.32
2022-11-28T10:19:57.480Z,98.37
2022-11-28T10:22:42.055Z,98.28
2022-11-28T10:25:24.371Z,98.55
2022-11-28T10:27:51.270Z,98.31
2022-11-28T10:30:23.363Z,98.34
2022-11-28T10:33:01.702Z,98.33
2022-11-28T10:35:43.477Z,98.63
2022-11-28T10:38:13.116Z,98.44
2022-11-28T10:40:48.560Z,98.36
2022-11-28T10:43:50.238Z,98.57
2022-11-28T10:46:30.905Z,98.29
2022-11-28T10:49:03.461Z,98.45
2022-11-28T10:51:31.895Z,98.54
2022-11-28T10:54:10.838Z,98.79
2022-11-28T10:56:49.377Z,98.48
2022-11-28T10:59:23.292Z,98.51
2022-11-28T11:01:52.307Z,98.49
2022-11-28T11:04:23.313Z,98.74
2022-11-28T11:07:14.871Z,98.61
2022-11-28T11:09:45.609Z,98.73
2022-11-28T11:12:23.112Z,98.67
2022-11-28T11:14:49.670Z,98.56
2022-11-28T11:17:37.873Z,98.80
2022-11-28T11:20:28.284Z,98.87
2022-11-28T11:22:57.432Z,98.93
2022-11-28T11:25:26.051Z,98.82
2022-11-28T11:27:55.415Z,98.75
2022-11-28T11:30:31.335Z,98.62
2022-11-28T11:33:00.219Z,98.92
2022-11-28T11:35:29.953Z,98.88
2022-11-28T11:38:17.136Z,99.08
2022-11-28T11:40:44.191Z,99.08
2022-11-28T11:43:32.859Z,98.88
2022-11-28T11:46:12.034Z,98.97
2022-11-28T11:48:41.830Z,98.98
2022-11-28T11:51:21.434Z,99.37
2022-11-28T11:53:48.297Z,99.13
2022-11-28T11:56:15.044Z,99.23
2022-11-28T11:58:47.712Z,99.24
2022-11-28T12:01:18.149Z,99.06
2022-11-28T12:03:55.114Z,98.96
2022-11-28T12:06:27.923Z,99.11
2022-11-28T12:09:09.223Z,99.29
2022-11-28T12:11:46.522Z,99.37
2022-11-28T12:14:33.262Z,99.32
2022-11-28T12:20:36.138Z,99.17
2022-11-28T12:23:17.230Z,99.29
2022-11-28T12:25:54.955Z,99.44
2022-11-28T12:28:45.454Z,99.72
2022-11-28T12:31:21.953Z,99.44
2022-11-28T12:33:52.406Z,99.28
2022-11-28T12:36:33.200Z,99.15
2022-11-28T12:39:02.957Z,99.48
2022-11-28T12:41:44.316Z,99.42
2022-11-28T12:44:26.222Z,99.25
2022-11-28T12:46:59.568Z,99.11
2022-11-28T12:49:40.215Z,99.29
2022-11-28T12:52:23.729Z,99.41
2022-11-28T12:54:54.277Z,99.31
2022-11-28T12:57:50.104Z,99.56
2022-11-28T13:00:22.050Z,99.52
2022-11-28T13:03:05.237Z,99.55
2022-11-28T13:05:41.049Z,99.29
2022-11-28T13:08:20.394Z,99.23
2022-11-28T13:11:04.508Z,99.52
2022-11-28T13:13:39.767Z,99.78
2022-11-28T13:16:26.469Z,99.63
2022-11-28T13:19:03.764Z,99.47
2022-11-28T13:21:48.156Z,99.62
2022-11-28T13:24:18.625Z,99.75
2022-11-28T13:27:00.012Z,99.63
2022-11-28T13:29:36.662Z,99.78
2022-11-28T13:32:19.007Z,99.67
2022-11-28T13:34:46.812Z,99.53
2022-11-28T13:40:34.191Z,99.74
2022-11-28T13:43:08.146Z,99.59
2022-11-28T13:45:39.186Z,99.66
2022-11-28T13:49:06.125Z,99.88
2022-11-28T13:51:30.585Z,99.83
2022-11-28T13:54:17.069Z,99.57
2022-11-28T13:56:46.356Z,99.54
2022-11-28T13:59:22.062Z,99.46
2022-11-28T14:01:56.555Z,99.69
2022-11-28T14:04:23.936Z,99.79
2022-11-28T14:06:59.152Z,99.40
2022-11-28T14:09:34.600Z,99.51
2022-11-28T14:12:19.315Z,99.79
2022-11-28T14:15:08.520Z,99.25
2022-11-28T14:17:37.088Z,99.40
2022-11-28T14:20:27.004Z,99.48
2022-11-28T14:23:14.169Z,99.60
2022-11-28T14:25:45.722Z,99.38
2022-11-28T14:28:22.893Z,99.47
2022-11-28T14:30:50.799Z,99.40
2022-11-28T14:33:32.421Z,99.63
2022-11-28T14:36:04.761Z,99.40
2022-11-28T14:38:31.295Z,99.59
2022-11-28T14:41:04.158Z,99.56
2022-11-28T14:43:31.763Z,99.44
2022-11-28T14:46:20.826Z,99.43
2022-11-28T14:48:57.631Z,99.66
2022-11-28T14:52:30.940Z,99.49
2022-11-28T14:54:54.776Z,99.60
2022-11-28T14:57:28.876Z,99.62
2022-11-28T14:59:58.706Z,99.60
2022-11-28T15:02:45.834Z,99.33
2022-11-28T15:05:22.782Z,99.69
2022-11-28T15:08:22.413Z,99.78
2022-11-28T15:10:56.003Z,99.64
2022-11-28T15:13:54.923Z,99.70
2022-11-28T15:16:24.020Z,99.58
2022-11-28T15:18:56.932Z,99.71
2022-11-28T15:21:23.639Z,99.62
2022-11-28T15:23:52.607Z,99.79
2022-11-28T15:26:22.588Z,99.41
2022-11-28T15:28:49.430Z,99.29
2022-11-28T15:31:22.705Z,99.61
2022-11-28T15:33:50.904Z,99.71
2022-11-28T15:36:27.192Z,99.62
2022-11-28T15:38:55.687Z,99.56
2022-11-28T15:41:24.528Z,99.70
2022-11-28T15:43:53.091Z,99.99
2022-11-28T15:46:27.081Z,99.59
2022-11-28T15:48:55.008Z,99.75
2022-11-28T15:51:33.641Z,99.80
2022-11-28T15:54:31.811Z,99.88
2022-11-28T15:56:59.917Z,99.87
2022-11-28T15:59:26.661Z,99.58
2022-11-28T16:01:59.520Z,99.69
2022-11-28T16:04:59.743Z,99.63
2022-11-28T16:07:28.732Z,99.44
2022-11-28T16:10:01.857Z,99.59
2022-11-28T16:12:28.747Z,99.30
2022-11-28T16:15:01.647Z,99.67
2022-11-28T16:17:32.327Z,99.55
2022-11-28T16:20:00.567Z,99.23
2022-11-28T16:22:32.609Z,99.19
2022-11-28T16:25:12.075Z,99.19
2022-11-28T16:27:41.873Z,99.44
2022-11-28T16:30:33.517Z,99.51
2022-11-28T16:33:00.088Z,99.44
2022-11-28T16:35:35.112Z,99.50
2022-11-28T16:38:18.222Z,99.33
2022-11-28T16:40:45.993Z,99.49
2022-11-28T16:43:24.524Z,99.29
2022-11-28T16:46:00.327Z,99.11
2022-11-28T16:48:32.518Z,99.13
2022-11-28T16:51:22.018Z,99.14
2022-11-28T16:53:51.763Z,99.04
2022-11-28T16:56:30.396Z,99.27
2022-11-28T16:59:07.092Z,98.99
2022-11-28T17:01:35.070Z,98.99
2022-11-28T17:04:01.916Z,98.99
2022-11-28T17:06:34.251Z,98.99
2022-11-28T17:09:01.662Z,99.13
2022-11-28T17:11:32.615Z,98.98
2022-11-28T17:14:02.565Z,99.02
2022-11-28T17:16:38.488Z,98.89
2022-11-28T17:19:05.395Z,99.05
2022-11-28T17:21:35.490Z,98.73
2022-11-28T17:24:02.145Z,98.68
2022-11-28T17:26:29.645Z,98.49
2022-11-28T17:28:57.929Z,98.68
2022-11-28T17:31:24.504Z,98.52
2022-11-28T17:33:51.144Z,98.50
2022-11-28T17:36:17.627Z,98.20
2022-11-28T17:38:44.066Z,98.31
2022-11-28T17:41:13.550Z,98.09
2022-11-28T17:43:40.871Z,97.75
2022-11-28T17:46:07.480Z,97.79
2022-11-28T17:48:33.945Z,97.67
2022-11-28T17:51:02.052Z,97.66
2022-11-28T17:53:28.598Z,97.51
2022-11-28T17:55:59.049Z,96.98
2022-11-28T17:58:25.966Z,96.99
2022-11-28T18:00:59.970Z,96.75
2022-11-28T18:03:27.831Z,96.68
2022-11-28T18:05:54.315Z,96.39
2022-11-28T18:08:22.227Z,95.98
2022-11-28T18:10:49.324Z,96.25
2022-11-28T18:13:17.466Z,95.81
2022-11-28T18:15:46.343Z,95.66
2022-11-28T18:18:12.903Z,95.37
2022-11-28T18:20:39.396Z,95.63
2022-11-28T18:23:05.895Z,95.87
2022-11-28T18:25:32.518Z,95.61
2022-11-28T18:27:59.151Z,95.62
2022-11-28T18:30:25.704Z,95.50
2022-11-28T18:32:52.218Z,95.43
2022-11-28T18:35:19.458Z,95.66
2022-11-28T18:37:46.212Z,95.58
2022-11-28T18:40:13.148Z,95.70
2022-11-28T18:42:40.003Z,95.44
2022-11-28T18:45:07.103Z,95.17
2022-11-28T18:47:35.658Z,95.27
2022-11-28T18:50:02.233Z,95.40
2022-11-28T18:52:28.702Z,95.60
2022-11-28T18:54:55.227Z,95.71
2022-11-28T18:57:21.791Z,95.50
2022-11-28T18:59:54.743Z,95.20
2022-11-28T19:02:21.718Z,95.50
2022-11-28T19:04:48.265Z,95.45
2022-11-28T19:07:14.787Z,95.24
2022-11-28T19:09:41.553Z,95.39
2022-11-28T19:12:08.247Z,95.41
2022-11-28T19:14:34.858Z,95.51
2022-11-28T19:17:03.377Z,95.52
2022-11-28T19:19:30.263Z,95.41
2022-11-28T19:21:57.113Z,95.51
2022-11-28T19:24:23.706Z,95.84
2022-11-28T19:26:50.427Z,95.86
2022-11-28T19:29:17.094Z,95.66
2022-11-28T19:31:43.656Z,95.90
2022-11-28T19:34:12.316Z,95.74
2022-11-28T19:36:42.479Z,95.80
2022-11-28T19:39:16.888Z,95.99
2022-11-28T19:41:43.739Z,96.03
2022-11-28T19:44:11.449Z,95.85
2022-11-28T19:46:38.337Z,96.04
2022-11-28T19:49:06.406Z,95.98
2022-11-28T19:51:33.278Z,96.27
2022-11-28T19:54:03.574Z,96.21
2022-11-28T19:56:31.366Z,96.04
2022-11-28T19:58:58.558Z,96.23
2022-11-28T20:01:25.248Z,96.38
2022-11-28T20:03:52.541Z,96.65
2022-11-28T20:06:29.002Z,96.76
2022-11-28T20:08:58.867Z,96.89
2022-11-28T20:11:28.328Z,97.02
2022-11-28T20:13:57.439Z,97.07
2022-11-28T20:16:24.578Z,97.19
2022-11-28T20:18:51.103Z,96.97
2022-11-28T20:21:19.763Z,97.33
2022-11-28T20:23:48.661Z,97.21
2022-11-28T20:26:16.999Z,97.25
2022-11-28T20:28:44.069Z,97.36
2022-11-28T20:31:19.749Z,97.68
2022-11-28T20:33:47.611Z,97.61
2022-11-28T20:36:16.311Z,97.75
2022-11-28T20:38:43.000Z,97.89
2022-11-28T20:41:13.116Z,97.76
2022-11-28T20:43:40.609Z,98.07
2022-11-28T20:46:11.239Z,98.31
2022-11-28T20:48:38.450Z,98.25
2022-11-28T20:51:09.904Z,98.27
2022-11-28T20:53:39.278Z,98.26
2022-11-28T20:56:10.899Z,98.40
2022-11-28T20:58:39.619Z,98.30
2022-11-28T21:01:06.584Z,98.80
2022-11-28T21:03:33.549Z,98.50
2022-11-28T21:06:01.501Z,98.90
2022-11-28T21:08:31.380Z,98.87
2022-11-28T21:10:57.826Z,98.90
2022-11-28T21:13:24.462Z,98.90
2022-11-28T21:15:52.102Z,98.59
2022-11-28T21:18:18.618Z,98.71
2022-11-28T21:20:46.266Z,98.69
2022-11-28T21:23:14.951Z,98.73
2022-11-28T21:25:43.429Z,98.41
2022-11-28T21:28:11.128Z,98.69
2022-11-28T21:30:45.507Z,98.82
2022-11-28T21:33:14.162Z,98.71
2022-11-28T21:35:40.730Z,99.13
2022-11-28T21:38:09.482Z,98.67
2022-11-28T21:40:36.029Z,98.81
2022-11-28T21:43:02.565Z,98.71
2022-11-28T21:45:29.134Z,98.93
2022-11-28T21:47:55.765Z,98.92
2022-11-28T21:50:22.313Z,98.76
2022-11-28T21:52:48.791Z,98.69
2022-11-28T21:55:15.369Z,98.68
2022-11-28T21:57:44.319Z,98.60
2022-11-28T22:00:25.881Z,98.63
2022-11-28T22:05:45.040Z,98.45
2022-11-28T22:08:11.753Z,98.44
2022-11-28T22:10:38.307Z,98.97
2022-11-28T22:13:04.745Z,98.45
2022-11-28T22:15:32.207Z,98.68
2022-11-28T22:17:58.627Z,98.76
2022-11-28T22:20:25.156Z,98.71
2022-11-28T22:22:51.653Z,98.72
2022-11-28T22:25:18.190Z,98.98
2022-11-28T22:27:44.637Z,98.60
2022-11-28T22:30:11.564Z,98.75
2022-11-28T22:32:37.993Z,98.86
2022-11-28T22:35:07.039Z,98.83
2022-11-28T22:37:34.411Z,98.83
2022-11-28T22:40:00.986Z,98.89
2022-11-28T22:42:27.549Z,98.75
2022-11-28T22:44:54.052Z,98.56
2022-11-28T22:47:20.781Z,98.75
2022-11-28T22:49:47.330Z,98.93
2022-11-28T22:52:13.827Z,98.59
2022-11-28T22:54:40.346Z,98.70
2022-11-28T22:57:06.823Z,98.71
2022-11-28T22:59:35.193Z,98.62
2022-11-28T23:02:02.840Z,98.48
2022-11-28T23:04:29.525Z,98.60
2022-11-28T23:06:55.988Z,98.59
2022-11-28T23:09:22.478Z,98.73
2022-11-28T23:11:49.084Z,98.96
2022-11-28T23:14:15.587Z,98.73
2022-11-28T23:16:43.831Z,98.73
2022-11-28T23:19:13.536Z,99.02
2022-11-28T23:21:43.434Z,98.87
2022-11-28T23:24:14.868Z,98.63
2022-11-28T23:26:42.255Z,98.98
2022-11-28T23:29:09.226Z,98.87
2022-11-28T23:31:38.331Z,98.76
2022-11-28T23:34:06.083Z,98.63
2022-11-28T23:36:42.150Z,98.89
2022-11-28T23:39:13.887Z,98.72
2022-11-28T23:41:41.628Z,98.75
2022-11-28T23:44:11.084Z,98.61
2022-11-28T23:46:38.162Z,98.67
2022-11-28T23:49:05.639Z,98.64
2022-11-28T23:51:32.274Z,98.59
2022-11-28T23:53:58.792Z,98.68
2022-11-28T23:56:28.602Z,98.82
2022-11-28T23:58:56.191Z,98.71
